Time;durP1;ratioP1;P1;durP2;ratioP2;P2;SDS_P1;SDS_P2;PMS_P1;PMS_P2;Temp;Humidity;BMP_temperature;BMP_pressure;BME280_temperature;BME280_humidity;BME280_pressure;Samples;Min_cycle;Max_cycle;Signal;HPM_P1;HPM_P2
2023/07/02 00:01:21;;;;;;;;;;;17.70;99.90;;;;;;5000120;28;20594;-57
2023/07/02 00:03:46;;;;;;;;;;;17.70;99.90;;;;;;5001053;28;19925;-56
2023/07/02 00:06:12;;;;;;;;;;;17.60;99.90;;;;;;4999227;28;19913;-57
2023/07/02 00:08:37;;;;;;;;;;;17.70;99.90;;;;;;4999669;28;20385;-57
2023/07/02 00:11:03;;;;;;;;;;;17.60;99.90;;;;;;5004228;28;19956;-57
2023/07/02 00:13:28;;;;;;;;;;;17.70;99.90;;;;;;4999967;28;19989;-56
2023/07/02 00:15:54;;;;;;;;;;;17.60;99.90;;;;;;5000356;28;20259;-58
2023/07/02 00:18:19;;;;;;;;;;;17.60;99.90;;;;;;5003173;28;19909;-56
2023/07/02 00:20:45;;;;;;;;;;;17.70;99.90;;;;;;5000419;28;19920;-57
2023/07/02 00:23:10;;;;;;;;;;;17.70;99.90;;;;;;4999334;28;19905;-57
2023/07/02 00:25:36;;;;;;;;;;;17.70;99.90;;;;;;4999314;28;19906;-56
2023/07/02 00:28:02;;;;;;;;;;;17.70;99.90;;;;;;5001618;28;19909;-58
2023/07/02 00:30:28;;;;;;;;;;;17.60;99.90;;;;;;4999437;28;20360;-57
2023/07/02 00:32:53;;;;;;;;;;;17.60;99.90;;;;;;4998007;28;19917;-56
2023/07/02 00:35:19;;;;;;;;;;;17.60;99.90;;;;;;4999819;28;19914;-57
2023/07/02 00:37:44;;;;;;;;;;;17.60;99.90;;;;;;4998306;28;19909;-57
2023/07/02 00:40:10;;;;;;;;;;;17.60;99.90;;;;;;4997370;28;19914;-57
2023/07/02 00:42:35;;;;;;;;;;;17.60;99.90;;;;;;5002868;28;19914;-58
2023/07/02 00:45:04;;;;;;;;;;;17.60;99.90;;;;;;4999764;28;20285;-56
2023/07/02 00:47:34;;;;;;;;;;;17.60;99.90;;;;;;4998172;28;19909;-57
2023/07/02 00:49:59;;;;;;;;;;;17.60;99.90;;;;;;5003242;28;19917;-56
2023/07/02 00:52:25;;;;;;;;;;;17.50;99.90;;;;;;5000232;28;20436;-58
2023/07/02 00:54:51;;;;;;;;;;;17.50;99.90;;;;;;5001739;28;19914;-57
2023/07/02 00:57:17;;;;;;;;;;;17.50;99.90;;;;;;5000235;28;20658;-58
2023/07/02 00:59:42;;;;;;;;;;;17.50;99.90;;;;;;4999775;28;20361;-58
2023/07/02 01:02:07;;;;;;;;;;;17.50;99.90;;;;;;5000048;28;20378;-57
2023/07/02 01:04:33;;;;;;;;;;;17.50;99.90;;;;;;4999979;28;20032;-57
2023/07/02 01:06:58;;;;;;;;;;;17.50;99.90;;;;;;4998680;28;19910;-58
2023/07/02 01:09:27;;;;;;;;;;;17.50;99.90;;;;;;5001086;28;19909;-58
2023/07/02 01:12:00;;;;;;;;;;;17.50;99.90;;;;;;4998956;28;19909;-57
2023/07/02 01:14:30;;;;;;;;;;;17.40;99.90;;;;;;4996518;28;19913;-57
2023/07/02 01:16:57;;;;;;;;;;;17.40;99.90;;;;;;5004010;28;19909;-57
2023/07/02 01:19:41;;;;;;;;;;;17.30;99.90;;;;;;5000873;28;19914;-59
2023/07/02 01:22:07;;;;;;;;;;;17.30;99.90;;;;;;5005483;28;19960;-59
2023/07/02 01:24:33;;;;;;;;;;;17.10;99.90;;;;;;4999298;28;19956;-58
2023/07/02 01:27:01;;;;;;;;;;;17.10;99.90;;;;;;5000413;28;19913;-58
2023/07/02 01:29:29;;;;;;;;;;;17.10;99.90;;;;;;4999320;28;20222;-58
2023/07/02 01:31:54;;;;;;;;;;;17.10;99.90;;;;;;4997836;28;19913;-57
2023/07/02 01:34:20;;;;;;;;;;;17.10;99.90;;;;;;5002437;28;20278;-57
2023/07/02 01:36:45;;;;;;;;;;;17.20;99.90;;;;;;4997579;28;19994;-58
2023/07/02 01:39:11;;;;;;;;;;;17.20;99.90;;;;;;4999601;28;19963;-58
2023/07/02 01:41:44;;;;;;;;;;;17.20;99.90;;;;;;4998947;28;20008;-58
2023/07/02 01:44:10;;;;;;;;;;;17.30;99.90;;;;;;4998803;28;19936;-58
2023/07/02 01:46:36;;;;;;;;;;;17.30;99.90;;;;;;4998306;28;19902;-57
2023/07/02 01:49:02;;;;;;;;;;;17.30;99.90;;;;;;4998346;28;19917;-57
2023/07/02 01:51:27;;;;;;;;;;;17.30;99.90;;;;;;4998343;28;19950;-58
2023/07/02 01:53:53;;;;;;;;;;;17.30;99.90;;;;;;4998193;28;19941;-59
2023/07/02 01:56:18;;;;;;;;;;;17.30;99.90;;;;;;4997089;28;20060;-60
2023/07/02 01:58:43;;;;;;;;;;;17.30;99.90;;;;;;4996746;28;19956;-60
2023/07/02 02:01:09;;;;;;;;;;;17.30;99.90;;;;;;4995282;28;20453;-59
2023/07/02 02:03:34;;;;;;;;;;;17.40;99.90;;;;;;4999302;28;19920;-59
2023/07/02 02:06:00;;;;;;;;;;;17.40;99.90;;;;;;4997928;28;19949;-59
2023/07/02 02:08:25;;;;;;;;;;;17.30;99.90;;;;;;4997642;28;19955;-61
2023/07/02 02:10:51;;;;;;;;;;;17.40;99.90;;;;;;4999076;28;19945;-59
2023/07/02 02:13:16;;;;;;;;;;;17.40;99.90;;;;;;4999455;28;19921;-59
2023/07/02 02:15:42;;;;;;;;;;;17.30;99.90;;;;;;4997329;28;19924;-59
2023/07/02 02:18:07;;;;;;;;;;;17.30;99.90;;;;;;4997252;28;20582;-58
2023/07/02 02:20:33;;;;;;;;;;;17.20;99.90;;;;;;4998329;28;19956;-59
2023/07/02 02:22:58;;;;;;;;;;;17.10;99.90;;;;;;5002160;28;19905;-59
2023/07/02 02:25:24;;;;;;;;;;;17.00;99.90;;;;;;4998097;28;20338;-59
2023/07/02 02:27:49;;;;;;;;;;;17.00;99.90;;;;;;4998293;28;19920;-60
2023/07/02 02:30:15;;;;;;;;;;;16.90;99.90;;;;;;4998573;28;19913;-59
2023/07/02 02:32:40;;;;;;;;;;;16.80;99.90;;;;;;4998363;28;20455;-60
2023/07/02 02:35:06;;;;;;;;;;;16.70;99.90;;;;;;5000477;28;19910;-59
2023/07/02 02:37:33;;;;;;;;;;;16.70;99.90;;;;;;5001907;28;19905;-59
2023/07/02 02:39:58;;;;;;;;;;;16.70;99.90;;;;;;4997887;28;20382;-58
2023/07/02 02:42:25;;;;;;;;;;;16.80;99.90;;;;;;4997920;28;19910;-60
2023/07/02 02:44:50;;;;;;;;;;;16.80;99.90;;;;;;4997065;28;20328;-60
2023/07/02 02:47:16;;;;;;;;;;;16.80;99.90;;;;;;5001378;28;19913;-58
2023/07/02 02:49:41;;;;;;;;;;;16.90;99.90;;;;;;5000274;28;19913;-60
2023/07/02 02:52:07;;;;;;;;;;;16.90;99.90;;;;;;4996139;28;20284;-59
2023/07/02 02:54:32;;;;;;;;;;;16.90;99.90;;;;;;4996197;28;19909;-60
2023/07/02 02:56:58;;;;;;;;;;;16.90;99.90;;;;;;4999519;28;19917;-60
2023/07/02 02:59:23;;;;;;;;;;;16.90;99.90;;;;;;5002055;28;19925;-59
2023/07/02 03:01:50;;;;;;;;;;;16.90;99.90;;;;;;4999488;28;20365;-61
2023/07/02 03:04:16;;;;;;;;;;;16.90;99.90;;;;;;4997177;28;19909;-60
2023/07/02 03:06:41;;;;;;;;;;;16.90;99.90;;;;;;4996511;28;20730;-60
2023/07/02 03:09:07;;;;;;;;;;;16.90;99.90;;;;;;4996040;28;19920;-59
2023/07/02 03:11:32;;;;;;;;;;;16.90;99.90;;;;;;4998281;28;19961;-59
2023/07/02 03:13:58;;;;;;;;;;;16.80;99.90;;;;;;5006363;28;20377;-59
2023/07/02 03:16:23;;;;;;;;;;;16.80;99.90;;;;;;4993565;28;20008;-58
2023/07/02 03:18:49;;;;;;;;;;;16.80;99.90;;;;;;4998843;28;19993;-59
2023/07/02 03:21:14;;;;;;;;;;;16.80;99.90;;;;;;4991430;28;19921;-59
2023/07/02 03:23:40;;;;;;;;;;;16.80;99.90;;;;;;4999059;28;19921;-59
2023/07/02 03:26:05;;;;;;;;;;;16.80;99.90;;;;;;5001628;28;19906;-60
2023/07/02 03:28:33;;;;;;;;;;;16.80;99.90;;;;;;4998567;28;20330;-60
2023/07/02 03:30:59;;;;;;;;;;;16.70;99.90;;;;;;4998635;28;19996;-59
2023/07/02 03:33:24;;;;;;;;;;;16.70;99.90;;;;;;4995544;28;20028;-58
2023/07/02 03:35:50;;;;;;;;;;;16.70;99.90;;;;;;4997908;28;19918;-59
2023/07/02 03:38:15;;;;;;;;;;;16.60;99.90;;;;;;5002172;28;19905;-60
2023/07/02 03:40:41;;;;;;;;;;;16.60;99.90;;;;;;5003949;28;20377;-59
2023/07/02 03:43:06;;;;;;;;;;;16.60;99.90;;;;;;5005347;28;20048;-59
2023/07/02 03:45:32;;;;;;;;;;;16.60;99.90;;;;;;4996991;28;20362;-60
2023/07/02 03:47:58;;;;;;;;;;;16.60;99.90;;;;;;5000622;28;19981;-61
2023/07/02 03:50:23;;;;;;;;;;;16.70;99.90;;;;;;5002075;28;19914;-59
2023/07/02 03:52:49;;;;;;;;;;;16.70;99.90;;;;;;5002361;28;19909;-59
2023/07/02 03:55:14;;;;;;;;;;;16.60;99.90;;;;;;4999767;28;20290;-60
2023/07/02 03:57:40;;;;;;;;;;;16.60;99.90;;;;;;5003090;28;19921;-59
2023/07/02 04:00:06;;;;;;;;;;;16.60;99.90;;;;;;5001531;28;20289;-61
2023/07/02 04:02:31;;;;;;;;;;;16.60;99.90;;;;;;4992694;28;20276;-60
2023/07/02 04:04:57;;;;;;;;;;;16.60;99.90;;;;;;5021000;28;19913;-60
2023/07/02 04:07:23;;;;;;;;;;;16.60;99.90;;;;;;5022566;28;19913;-59
2023/07/02 04:09:49;;;;;;;;;;;16.60;99.90;;;;;;5020147;28;19914;-59
2023/07/02 04:12:14;;;;;;;;;;;16.60;99.90;;;;;;5022458;28;19920;-60
2023/07/02 04:14:39;;;;;;;;;;;16.60;99.90;;;;;;5018606;28;19913;-60
2023/07/02 04:17:05;;;;;;;;;;;16.70;99.90;;;;;;5017800;28;19913;-60
2023/07/02 04:19:31;;;;;;;;;;;16.70;99.90;;;;;;5021643;28;19905;-60
2023/07/02 04:21:56;;;;;;;;;;;16.80;99.90;;;;;;5022175;28;19912;-61
2023/07/02 04:24:22;;;;;;;;;;;16.90;99.90;;;;;;5021340;28;20245;-61
2023/07/02 04:26:47;;;;;;;;;;;16.90;99.90;;;;;;5023598;28;19952;-60
2023/07/02 04:29:13;;;;;;;;;;;16.90;99.90;;;;;;5021727;28;19915;-60
2023/07/02 04:31:38;;;;;;;;;;;16.90;99.90;;;;;;5016284;28;20288;-59
2023/07/02 04:34:05;;;;;;;;;;;16.80;99.90;;;;;;5020281;28;20383;-59
2023/07/02 04:36:31;;;;;;;;;;;16.80;99.90;;;;;;5019869;28;19917;-60
2023/07/02 04:38:57;;;;;;;;;;;16.70;99.90;;;;;;5020708;28;19916;-60
2023/07/02 04:41:22;;;;;;;;;;;16.70;99.90;;;;;;5021105;28;19923;-59
2023/07/02 04:43:48;;;;;;;;;;;16.70;99.90;;;;;;5023741;28;20551;-59
2023/07/02 04:46:13;;;;;;;;;;;16.70;99.90;;;;;;5020607;28;19913;-59
2023/07/02 04:48:39;;;;;;;;;;;16.80;99.90;;;;;;5020981;28;19913;-58
2023/07/02 04:51:04;;;;;;;;;;;16.80;99.90;;;;;;5021097;28;19913;-60
2023/07/02 04:53:30;;;;;;;;;;;16.80;99.90;;;;;;5025589;28;19923;-59
2023/07/02 04:55:57;;;;;;;;;;;16.80;99.90;;;;;;5020401;28;20297;-60
2023/07/02 04:58:22;;;;;;;;;;;16.80;99.90;;;;;;5019257;28;19917;-59
2023/07/02 05:00:48;;;;;;;;;;;16.80;99.90;;;;;;5019951;28;19913;-59
2023/07/02 05:03:14;;;;;;;;;;;16.70;99.90;;;;;;5022552;28;19999;-59
2023/07/02 05:05:39;;;;;;;;;;;16.70;99.90;;;;;;5019506;28;19969;-58
2023/07/02 05:08:05;;;;;;;;;;;16.70;99.90;;;;;;5019012;28;20330;-60
2023/07/02 05:10:30;;;;;;;;;;;16.70;99.90;;;;;;5017392;28;19905;-59
2023/07/02 05:12:56;;;;;;;;;;;16.70;99.90;;;;;;5022146;28;20361;-60
2023/07/02 05:15:21;;;;;;;;;;;16.80;99.90;;;;;;5019602;28;19921;-57
2023/07/02 05:17:47;;;;;;;;;;;16.90;99.90;;;;;;5021418;28;19921;-59
2023/07/02 05:20:12;;;;;;;;;;;17.10;99.90;;;;;;5018699;28;19906;-59
2023/07/02 05:22:38;;;;;;;;;;;17.20;99.90;;;;;;5016067;28;19912;-58
2023/07/02 05:25:03;;;;;;;;;;;17.40;99.90;;;;;;5016899;28;19920;-59
2023/07/02 05:27:29;;;;;;;;;;;17.40;99.90;;;;;;5017759;28;19980;-60
2023/07/02 05:29:54;;;;;;;;;;;17.40;99.90;;;;;;5018392;28;19975;-60
2023/07/02 05:32:20;;;;;;;;;;;17.30;99.90;;;;;;5016416;28;19917;-60
2023/07/02 05:34:45;;;;;;;;;;;17.30;99.90;;;;;;5018551;28;19913;-59
2023/07/02 05:37:11;;;;;;;;;;;17.20;99.90;;;;;;5017435;28;19912;-59
2023/07/02 05:39:36;;;;;;;;;;;17.20;99.90;;;;;;5020520;28;20500;-60
2023/07/02 05:42:02;;;;;;;;;;;17.20;99.90;;;;;;5021382;28;19920;-59
2023/07/02 05:44:27;;;;;;;;;;;17.20;99.90;;;;;;5017362;28;19920;-60
2023/07/02 05:46:53;;;;;;;;;;;17.20;99.90;;;;;;5016112;28;19913;-60
2023/07/02 05:49:18;;;;;;;;;;;17.20;99.90;;;;;;5018531;28;19916;-60
2023/07/02 05:51:44;;;;;;;;;;;17.30;99.90;;;;;;5016790;28;20380;-59
2023/07/02 05:54:09;;;;;;;;;;;17.30;99.90;;;;;;5013348;28;20333;-59
2023/07/02 05:56:35;;;;;;;;;;;17.40;99.90;;;;;;5017554;28;20287;-58
2023/07/02 05:59:00;;;;;;;;;;;17.40;99.90;;;;;;5020276;28;19916;-58
2023/07/02 06:01:26;;;;;;;;;;;17.40;99.90;;;;;;5020522;28;20003;-58
2023/07/02 06:03:51;;;;;;;;;;;17.40;99.90;;;;;;5020969;28;20289;-58
2023/07/02 06:06:17;;;;;;;;;;;17.40;99.90;;;;;;5019147;28;19945;-57
2023/07/02 06:08:42;;;;;;;;;;;17.50;99.90;;;;;;5019450;28;19916;-58
2023/07/02 06:11:09;;;;;;;;;;;17.50;99.90;;;;;;5020629;28;20261;-57
2023/07/02 06:13:35;;;;;;;;;;;17.50;99.90;;;;;;5016726;28;19901;-58
2023/07/02 06:16:00;;;;;;;;;;;17.50;99.90;;;;;;5019235;28;19917;-56
2023/07/02 06:18:26;;;;;;;;;;;17.50;99.90;;;;;;5016097;28;19944;-57
2023/07/02 06:20:51;;;;;;;;;;;17.50;99.90;;;;;;5017463;28;20372;-58
2023/07/02 06:23:17;;;;;;;;;;;17.50;99.90;;;;;;5017981;28;20015;-57
2023/07/02 06:25:42;;;;;;;;;;;17.50;99.90;;;;;;5018445;28;20581;-58
2023/07/02 06:28:09;;;;;;;;;;;17.50;99.90;;;;;;5018815;28;19913;-56
2023/07/02 06:30:34;;;;;;;;;;;17.50;99.90;;;;;;5018959;28;19910;-57
2023/07/02 06:33:00;;;;;;;;;;;17.50;99.90;;;;;;5017770;28;20008;-58
2023/07/02 06:35:26;;;;;;;;;;;17.60;99.90;;;;;;5016631;28;19960;-59
2023/07/02 06:37:52;;;;;;;;;;;17.60;99.90;;;;;;5020841;28;19995;-59
2023/07/02 06:40:17;;;;;;;;;;;17.60;99.90;;;;;;5019050;28;19936;-59
2023/07/02 06:42:43;;;;;;;;;;;17.70;99.90;;;;;;5018297;28;19913;-60
2023/07/02 06:45:08;;;;;;;;;;;17.80;99.90;;;;;;5019328;28;19967;-59
2023/07/02 06:47:34;;;;;;;;;;;17.90;99.90;;;;;;5018212;28;20344;-59
2023/07/02 06:49:59;;;;;;;;;;;17.90;99.90;;;;;;5018025;28;19910;-58
2023/07/02 06:52:25;;;;;;;;;;;17.90;99.90;;;;;;5016648;28;20439;-60
2023/07/02 06:54:51;;;;;;;;;;;17.90;99.90;;;;;;5003176;28;19909;-60
2023/07/02 06:57:16;;;;;;;;;;;17.90;99.90;;;;;;4996682;28;20377;-59
2023/07/02 06:59:42;;;;;;;;;;;17.80;99.90;;;;;;4994894;28;19914;-59
2023/07/02 07:02:07;;;;;;;;;;;17.80;99.90;;;;;;4997628;28;20704;-60
2023/07/02 07:04:34;;;;;;;;;;;17.70;99.90;;;;;;5000394;28;19905;-60
2023/07/02 07:07:02;;;;;;;;;;;17.70;99.90;;;;;;4995558;28;19920;-59
2023/07/02 07:09:28;;;;;;;;;;;17.70;99.90;;;;;;4999442;28;19917;-60
2023/07/02 07:11:53;;;;;;;;;;;17.70;99.90;;;;;;4995987;28;19964;-60
2023/07/02 07:14:19;;;;;;;;;;;17.60;99.90;;;;;;5002445;28;19929;-59
2023/07/02 07:16:44;;;;;;;;;;;17.70;99.90;;;;;;4996000;28;20278;-59
2023/07/02 07:19:10;;;;;;;;;;;17.80;99.90;;;;;;5000337;28;19913;-59
2023/07/02 07:21:35;;;;;;;;;;;18.10;99.90;;;;;;5000314;28;19996;-59
2023/07/02 07:24:01;;;;;;;;;;;18.30;99.90;;;;;;4997160;28;19913;-60
2023/07/02 07:26:26;;;;;;;;;;;18.40;99.90;;;;;;4998903;28;19963;-59
2023/07/02 07:28:54;;;;;;;;;;;18.50;99.90;;;;;;4996883;28;20278;-60
2023/07/02 07:31:19;;;;;;;;;;;18.70;99.90;;;;;;4993983;28;19918;-59
2023/07/02 07:33:45;;;;;;;;;;;18.80;99.90;;;;;;4995477;28;20359;-59
2023/07/02 07:36:11;;;;;;;;;;;18.80;99.90;;;;;;4993917;28;19928;-59
2023/07/02 07:38:36;;;;;;;;;;;19.00;99.90;;;;;;4999053;28;19959;-60
2023/07/02 07:41:01;;;;;;;;;;;19.10;99.90;;;;;;4998206;28;19957;-60
2023/07/02 07:43:27;;;;;;;;;;;19.10;99.90;;;;;;4995926;28;19924;-59
2023/07/02 07:45:52;;;;;;;;;;;19.00;99.90;;;;;;4998829;28;19909;-60
2023/07/02 07:48:18;;;;;;;;;;;18.90;99.90;;;;;;4997481;28;19910;-59
2023/07/02 07:50:43;;;;;;;;;;;18.80;99.90;;;;;;4996240;28;20362;-59
2023/07/02 07:53:09;;;;;;;;;;;18.60;99.90;;;;;;4997441;28;20449;-58
2023/07/02 07:55:34;;;;;;;;;;;18.60;99.90;;;;;;4996302;28;20060;-59
2023/07/02 07:58:00;;;;;;;;;;;18.50;99.90;;;;;;5002243;28;19912;-58
2023/07/02 08:00:26;;;;;;;;;;;18.50;99.90;;;;;;4994377;28;19921;-60
2023/07/02 08:02:55;;;;;;;;;;;18.50;99.90;;;;;;4999307;28;19912;-59
2023/07/02 08:05:20;;;;;;;;;;;18.60;99.90;;;;;;5002551;28;19929;-60
2023/07/02 08:07:46;;;;;;;;;;;18.60;99.90;;;;;;4997311;28;19909;-59
2023/07/02 08:10:11;;;;;;;;;;;18.80;99.90;;;;;;4996287;28;19949;-61
2023/07/02 08:12:37;;;;;;;;;;;18.90;99.90;;;;;;4997007;28;19925;-58
2023/07/02 08:15:03;;;;;;;;;;;19.00;99.90;;;;;;4996202;28;19917;-59
2023/07/02 08:17:30;;;;;;;;;;;19.00;99.90;;;;;;4998007;28;20393;-59
2023/07/02 08:19:56;;;;;;;;;;;19.00;99.90;;;;;;4996571;28;19909;-60
2023/07/02 08:22:21;;;;;;;;;;;19.10;99.90;;;;;;5000000;28;19910;-60
2023/07/02 08:24:49;;;;;;;;;;;19.30;99.90;;;;;;5001529;28;19918;-59
2023/07/02 08:27:19;;;;;;;;;;;19.60;99.90;;;;;;5001592;28;19918;-60
2023/07/02 08:29:46;;;;;;;;;;;19.90;99.90;;;;;;5000936;28;19921;-59
2023/07/02 08:32:11;;;;;;;;;;;20.00;99.90;;;;;;4999565;28;19917;-59
2023/07/02 08:34:37;;;;;;;;;;;20.10;99.90;;;;;;5000422;28;20614;-60
2023/07/02 08:37:02;;;;;;;;;;;20.10;99.90;;;;;;5001147;28;19914;-60
2023/07/02 08:39:28;;;;;;;;;;;20.20;99.90;;;;;;5000284;28;19920;-60
2023/07/02 08:41:53;;;;;;;;;;;20.20;99.90;;;;;;4997285;28;19917;-59
2023/07/02 08:44:20;;;;;;;;;;;20.30;99.90;;;;;;5001918;28;20478;-57
2023/07/02 08:46:47;;;;;;;;;;;20.50;99.90;;;;;;5001411;28;19912;-56
2023/07/02 08:49:13;;;;;;;;;;;20.50;99.90;;;;;;5003695;28;19916;-57
2023/07/02 08:51:38;;;;;;;;;;;20.50;99.90;;;;;;5001874;28;19910;-57
2023/07/02 08:54:04;;;;;;;;;;;20.50;99.90;;;;;;4999036;28;20317;-58
2023/07/02 08:56:30;;;;;;;;;;;20.50;99.90;;;;;;4998383;28;19914;-58
2023/07/02 08:58:55;;;;;;;;;;;20.60;99.90;;;;;;5001129;28;19906;-56
2023/07/02 09:01:21;;;;;;;;;;;20.70;99.90;;;;;;5002992;28;19909;-57
2023/07/02 09:03:47;;;;;;;;;;;20.90;98.80;;;;;;4998065;28;19999;-58
2023/07/02 09:06:13;;;;;;;;;;;20.90;99.90;;;;;;4996981;28;19929;-58
2023/07/02 09:08:38;;;;;;;;;;;20.70;97.90;;;;;;4999948;28;19918;-57
2023/07/02 09:11:07;;;;;;;;;;;20.50;99.40;;;;;;4999351;28;20384;-57
2023/07/02 09:13:42;;;;;;;;;;;20.40;99.90;;;;;;5001607;28;19906;-57
2023/07/02 09:16:08;;;;;;;;;;;20.40;99.90;;;;;;4999450;28;20004;-57
2023/07/02 09:18:33;;;;;;;;;;;20.40;99.90;;;;;;5000378;28;20048;-59
2023/07/02 09:20:59;;;;;;;;;;;20.50;99.90;;;;;;5002881;28;20263;-59
2023/07/02 09:23:35;;;;;;;;;;;20.70;99.90;;;;;;5000046;28;19914;-57
2023/07/02 09:26:03;;;;;;;;;;;20.80;95.90;;;;;;5000232;28;19914;-58
2023/07/02 09:28:29;;;;;;;;;;;21.10;95.00;;;;;;5020600;28;19935;-58
2023/07/02 09:30:55;;;;;;;;;;;21.30;92.80;;;;;;5020886;28;19987;-58
2023/07/02 09:33:24;;;;;;;;;;;21.30;92.30;;;;;;5018491;28;19921;-58
2023/07/02 09:35:51;;;;;;;;;;;21.30;92.30;;;;;;5019994;28;19921;-58
2023/07/02 09:38:17;;;;;;;;;;;21.30;91.60;;;;;;5020993;28;20050;-57
2023/07/02 09:40:45;;;;;;;;;;;21.20;91.20;;;;;;5019930;28;19952;-58
2023/07/02 09:43:11;;;;;;;;;;;21.20;91.50;;;;;;5017524;28;19920;-58
2023/07/02 09:45:40;;;;;;;;;;;21.60;92.50;;;;;;5018581;28;20274;-59
2023/07/02 09:48:06;;;;;;;;;;;22.00;90.90;;;;;;5020500;28;19920;-58
2023/07/02 09:50:32;;;;;;;;;;;22.30;85.00;;;;;;5018994;28;19909;-58
2023/07/02 09:52:57;;;;;;;;;;;22.40;84.20;;;;;;5019086;28;19909;-59
2023/07/02 09:55:23;;;;;;;;;;;22.30;85.60;;;;;;5019047;28;19913;-56
2023/07/02 09:57:49;;;;;;;;;;;22.10;84.00;;;;;;5018531;28;19968;-58
2023/07/02 10:00:15;;;;;;;;;;;21.80;85.70;;;;;;5019731;28;19929;-58
2023/07/02 10:02:40;;;;;;;;;;;21.70;86.30;;;;;;5018933;28;19917;-59
2023/07/02 10:05:06;;;;;;;;;;;21.70;86.20;;;;;;5017155;28;20395;-57
2023/07/02 10:07:34;;;;;;;;;;;21.70;84.10;;;;;;5018265;28;19901;-58
2023/07/02 10:10:00;;;;;;;;;;;21.60;86.40;;;;;;5017205;28;19916;-56
2023/07/02 10:12:27;;;;;;;;;;;21.60;86.80;;;;;;5018333;28;19910;-57
2023/07/02 10:14:53;;;;;;;;;;;21.50;86.90;;;;;;5018853;28;19909;-57
2023/07/02 10:17:29;;;;;;;;;;;21.30;85.80;;;;;;5018799;28;19912;-57
2023/07/02 10:19:55;;;;;;;;;;;21.10;87.70;;;;;;5020130;28;19905;-58
2023/07/02 10:22:21;;;;;;;;;;;21.10;88.20;;;;;;5016489;28;19919;-57
2023/07/02 10:24:52;;;;;;;;;;;21.10;91.50;;;;;;5020112;28;20000;-58
2023/07/02 10:27:17;;;;;;;;;;;21.20;89.50;;;;;;5017178;28;20419;-57
2023/07/02 10:29:49;;;;;;;;;;;21.40;88.40;;;;;;5016779;28;19920;-57
2023/07/02 10:32:25;;;;;;;;;;;21.60;89.20;;;;;;5016921;28;19913;-57
2023/07/02 10:34:51;;;;;;;;;;;21.80;86.80;;;;;;5017097;28;19905;-58
2023/07/02 10:37:17;;;;;;;;;;;21.90;89.30;;;;;;5019851;28;19987;-57
2023/07/02 10:39:42;;;;;;;;;;;22.30;87.30;;;;;;5013654;28;20287;-57
2023/07/02 10:42:09;;;;;;;;;;;22.50;84.30;;;;;;5017869;28;20459;-58
2023/07/02 10:44:35;;;;;;;;;;;22.50;81.70;;;;;;5019183;28;19917;-58
2023/07/02 10:47:03;;;;;;;;;;;22.50;79.70;;;;;;5018228;28;19923;-56
2023/07/02 10:49:32;;;;;;;;;;;22.40;78.90;;;;;;5021812;28;19956;-59
2023/07/02 10:51:58;;;;;;;;;;;22.20;82.80;;;;;;5018366;28;19971;-58
2023/07/02 10:54:24;;;;;;;;;;;22.10;82.60;;;;;;5018941;28;19913;-58
2023/07/02 10:56:49;;;;;;;;;;;22.10;83.10;;;;;;5015150;28;19917;-58
2023/07/02 10:59:24;;;;;;;;;;;21.90;82.70;;;;;;5021460;28;19917;-58
2023/07/02 11:01:50;;;;;;;;;;;21.90;83.00;;;;;;5017875;28;19909;-56
2023/07/02 11:04:15;;;;;;;;;;;21.80;84.50;;;;;;5020254;28;19913;-58
2023/07/02 11:06:41;;;;;;;;;;;21.80;85.00;;;;;;5017666;28;19916;-56
2023/07/02 11:09:15;;;;;;;;;;;21.70;84.80;;;;;;5020365;28;19914;-58
2023/07/02 11:11:54;;;;;;;;;;;21.60;86.80;;;;;;5016812;28;19963;-58
2023/07/02 11:14:32;;;;;;;;;;;21.50;88.30;;;;;;5016855;28;19936;-58
2023/07/02 11:16:58;;;;;;;;;;;21.30;90.20;;;;;;5018624;28;19925;-59
2023/07/02 11:19:24;;;;;;;;;;;21.10;87.70;;;;;;5020110;28;19917;-56
2023/07/02 11:21:51;;;;;;;;;;;21.00;89.80;;;;;;5018395;28;20288;-57
2023/07/02 11:24:26;;;;;;;;;;;21.10;90.30;;;;;;5016179;28;19932;-58
2023/07/02 11:26:51;;;;;;;;;;;21.40;88.10;;;;;;5018074;28;19913;-59
2023/07/02 11:29:20;;;;;;;;;;;21.70;87.30;;;;;;5017069;28;19991;-58
2023/07/02 11:31:45;;;;;;;;;;;22.10;84.60;;;;;;5015427;28;19948;-57
2023/07/02 11:34:12;;;;;;;;;;;22.40;82.20;;;;;;5017856;28;19959;-58
2023/07/02 11:36:37;;;;;;;;;;;22.60;81.10;;;;;;5019716;28;20399;-58
2023/07/02 11:39:03;;;;;;;;;;;22.60;78.70;;;;;;5016927;28;19914;-58
2023/07/02 11:41:50;;;;;;;;;;;22.50;78.80;;;;;;5019225;28;19917;-58
2023/07/02 11:44:16;;;;;;;;;;;22.40;78.80;;;;;;5016651;28;19909;-58
2023/07/02 11:46:41;;;;;;;;;;;22.40;79.40;;;;;;5018921;28;20816;-57
2023/07/02 11:49:09;;;;;;;;;;;22.40;81.20;;;;;;5014406;28;19909;-58
2023/07/02 11:51:38;;;;;;;;;;;22.50;79.30;;;;;;5019465;28;19952;-56
2023/07/02 11:54:04;;;;;;;;;;;22.70;81.40;;;;;;5016107;28;19909;-58
2023/07/02 11:56:30;;;;;;;;;;;23.00;80.30;;;;;;5018220;28;19917;-56
2023/07/02 11:58:55;;;;;;;;;;;23.00;77.70;;;;;;5020419;28;19909;-58
2023/07/02 12:01:21;;;;;;;;;;;22.80;77.60;;;;;;5021419;28;19909;-57
2023/07/02 12:03:46;;;;;;;;;;;22.50;76.60;;;;;;5022250;28;20269;-58
2023/07/02 12:06:12;;;;;;;;;;;22.30;79.00;;;;;;5023114;28;19959;-58
2023/07/02 12:08:37;;;;;;;;;;;22.00;78.60;;;;;;5022110;28;19917;-59
2023/07/02 12:11:03;;;;;;;;;;;21.70;79.70;;;;;;5020863;28;19996;-58
2023/07/02 12:13:29;;;;;;;;;;;21.50;80.70;;;;;;5022912;28;20342;-57
2023/07/02 12:15:54;;;;;;;;;;;21.30;81.60;;;;;;5018644;28;19940;-57
2023/07/02 12:18:20;;;;;;;;;;;21.30;83.00;;;;;;5021953;28;19940;-57
2023/07/02 12:20:45;;;;;;;;;;;21.60;85.40;;;;;;5020592;28;19956;-56
2023/07/02 12:23:11;;;;;;;;;;;22.10;82.70;;;;;;5016304;28;20003;-58
2023/07/02 12:25:37;;;;;;;;;;;22.70;78.90;;;;;;5019251;28;19909;-56
2023/07/02 12:28:03;;;;;;;;;;;23.10;76.70;;;;;;5019804;28;19909;-58
2023/07/02 12:30:29;;;;;;;;;;;23.30;75.80;;;;;;5018622;28;20324;-57
2023/07/02 12:32:54;;;;;;;;;;;23.50;76.50;;;;;;5020518;28;19966;-57
2023/07/02 12:35:20;;;;;;;;;;;23.80;76.30;;;;;;5020885;28;19936;-58
2023/07/02 12:37:46;;;;;;;;;;;23.90;72.90;;;;;;5020404;28;19905;-57
2023/07/02 12:40:12;;;;;;;;;;;23.80;73.60;;;;;;5018004;28;19967;-58
2023/07/02 12:42:37;;;;;;;;;;;23.60;72.50;;;;;;5019089;28;20390;-58
2023/07/02 12:45:03;;;;;;;;;;;23.20;71.30;;;;;;5019577;28;20448;-58
2023/07/02 12:47:29;;;;;;;;;;;22.90;71.40;;;;;;5017198;28;19913;-57
2023/07/02 12:49:54;;;;;;;;;;;22.80;71.70;;;;;;5018722;28;19951;-58
2023/07/02 12:52:20;;;;;;;;;;;22.80;71.50;;;;;;5020827;28;20300;-62
2023/07/02 12:54:49;;;;;;;;;;;22.80;69.50;;;;;;5020065;28;19924;-58
2023/07/02 12:57:14;;;;;;;;;;;22.80;70.00;;;;;;5023119;28;19917;-57
2023/07/02 12:59:40;;;;;;;;;;;22.80;69.90;;;;;;5019397;28;19920;-56
2023/07/02 13:02:05;;;;;;;;;;;22.90;69.20;;;;;;5020434;28;19955;-58
2023/07/02 13:04:31;;;;;;;;;;;22.90;70.60;;;;;;5019417;28;19909;-58
2023/07/02 13:06:56;;;;;;;;;;;23.20;69.60;;;;;;5016966;28;19909;-58
2023/07/02 13:09:22;;;;;;;;;;;23.50;70.20;;;;;;5018623;28;19920;-58
2023/07/02 13:11:47;;;;;;;;;;;23.60;66.50;;;;;;5020157;28;20636;-57
2023/07/02 13:14:13;;;;;;;;;;;23.70;65.30;;;;;;5019669;28;20015;-57
2023/07/02 13:16:38;;;;;;;;;;;23.70;64.00;;;;;;5021185;28;19913;-57
2023/07/02 13:19:04;;;;;;;;;;;23.70;64.10;;;;;;5016378;28;19909;-58
2023/07/02 13:21:30;;;;;;;;;;;23.80;64.10;;;;;;5018134;28;19910;-56
2023/07/02 13:23:55;;;;;;;;;;;23.90;64.00;;;;;;5017639;28;19916;-57
2023/07/02 13:26:20;;;;;;;;;;;23.90;63.70;;;;;;5016864;28;19913;-59
2023/07/02 13:28:47;;;;;;;;;;;23.90;64.40;;;;;;5017882;28;20616;-57
2023/07/02 13:31:13;;;;;;;;;;;23.70;64.60;;;;;;5020726;28;20031;-58
2023/07/02 13:33:39;;;;;;;;;;;23.80;65.50;;;;;;5020232;28;19917;-59
2023/07/02 13:36:05;;;;;;;;;;;23.80;64.40;;;;;;5020567;28;19913;-59
2023/07/02 13:38:31;;;;;;;;;;;23.80;64.00;;;;;;5019793;28;19920;-58
2023/07/02 13:40:56;;;;;;;;;;;23.90;64.70;;;;;;5022244;28;19910;-58
2023/07/02 13:43:22;;;;;;;;;;;24.00;63.00;;;;;;5020147;28;20392;-57
2023/07/02 13:45:47;;;;;;;;;;;24.20;62.00;;;;;;5020193;28;20343;-57
2023/07/02 13:48:13;;;;;;;;;;;24.30;61.00;;;;;;5018533;28;19912;-58
2023/07/02 13:50:38;;;;;;;;;;;24.50;61.10;;;;;;5019123;28;19913;-58
2023/07/02 13:53:04;;;;;;;;;;;24.60;62.00;;;;;;5018268;28;19913;-58
2023/07/02 13:55:30;;;;;;;;;;;24.60;59.20;;;;;;5019328;28;20008;-57
2023/07/02 13:57:57;;;;;;;;;;;24.40;60.70;;;;;;5019368;28;20015;-58
2023/07/02 14:00:26;;;;;;;;;;;24.20;59.30;;;;;;5018335;28;19909;-59
2023/07/02 14:02:51;;;;;;;;;;;24.20;60.70;;;;;;5017356;28;20036;-59
2023/07/02 14:05:17;;;;;;;;;;;24.30;59.80;;;;;;5018800;28;20448;-58
2023/07/02 14:07:42;;;;;;;;;;;24.50;61.10;;;;;;5017633;28;19905;-58
2023/07/02 14:10:08;;;;;;;;;;;24.80;62.70;;;;;;5018461;28;19917;-58